sensor_id;sensor_type;location;lat;lon;timestamp;pressure;altitude;pressure_sealevel;temperature;humidity
48517;BME280;34310;51.904;4.256;2023-04-23T20:07:14;99826.09;;;15.04;65.42
48517;BME280;34310;51.904;4.256;2023-04-23T20:10:03;99834.91;;;15.08;65.45
48517;BME280;34310;51.904;4.256;2023-04-23T20:12:51;99835.94;;;15.13;65.25
48517;BME280;34310;51.904;4.256;2023-04-23T20:15:39;99833.56;;;15.19;66.22
48517;BME280;34310;51.904;4.256;2023-04-23T20:18:26;99834.59;;;15.24;65.22
48517;BME280;34310;51.904;4.256;2023-04-23T20:21:15;99827.91;;;15.31;64.95
48517;BME280;34310;51.904;4.256;2023-04-23T20:24:08;99830.75;;;15.37;64.88
48517;BME280;34310;51.904;4.256;2023-04-23T20:26:56;99835.28;;;15.42;64.68
48517;BME280;34310;51.904;4.256;2023-04-23T20:29:45;99824.13;;;15.46;64.66
48517;BME280;34310;51.904;4.256;2023-04-23T20:32:33;99819.09;;;15.51;64.56
48517;BME280;34310;51.904;4.256;2023-04-23T20:35:21;99825.34;;;15.56;64.56
48517;BME280;34310;51.904;4.256;2023-04-23T20:38:09;99820.25;;;15.59;64.59
48517;BME280;34310;51.904;4.256;2023-04-23T20:40:36;99820.44;;;15.64;64.60
48517;BME280;34310;51.904;4.256;2023-04-23T20:43:03;99830.97;;;15.67;64.16
48517;BME280;34310;51.904;4.256;2023-04-23T20:45:31;99830.19;;;15.69;64.36
48517;BME280;34310;51.904;4.256;2023-04-23T20:47:59;99824.22;;;15.73;64.23
48517;BME280;34310;51.904;4.256;2023-04-23T20:50:28;99831.25;;;15.76;64.25
48517;BME280;34310;51.904;4.256;2023-04-23T20:52:56;99844.31;;;15.77;64.33
48517;BME280;34310;51.904;4.256;2023-04-23T20:55:23;99853.06;;;15.79;64.18
48517;BME280;34310;51.904;4.256;2023-04-23T20:57:50;99865.28;;;15.82;64.17
48517;BME280;34310;51.904;4.256;2023-04-23T21:00:18;99868.00;;;15.85;63.99
48517;BME280;34310;51.904;4.256;2023-04-23T21:02:46;99877.56;;;15.86;63.94
48517;BME280;34310;51.904;4.256;2023-04-23T21:05:14;99881.13;;;15.88;63.96
48517;BME280;34310;51.904;4.256;2023-04-23T21:07:41;99888.97;;;15.90;63.92
48517;BME280;34310;51.904;4.256;2023-04-23T21:10:10;99880.41;;;15.92;64.07
48517;BME280;34310;51.904;4.256;2023-04-23T21:12:38;99882.22;;;15.95;63.98
48517;BME280;34310;51.904;4.256;2023-04-23T21:15:06;99882.28;;;15.96;64.10
48517;BME280;34310;51.904;4.256;2023-04-23T21:17:34;99891.03;;;15.98;63.90
48517;BME280;34310;51.904;4.256;2023-04-23T21:20:01;99891.97;;;16.00;64.12
48517;BME280;34310;51.904;4.256;2023-04-23T21:22:30;99898.94;;;16.01;64.04
48517;BME280;34310;51.904;4.256;2023-04-23T21:24:58;99915.50;;;16.03;64.02
48517;BME280;34310;51.904;4.256;2023-04-23T21:27:26;99910.34;;;16.05;63.90
48517;BME280;34310;51.904;4.256;2023-04-23T21:29:53;99910.38;;;16.06;64.07
48517;BME280;34310;51.904;4.256;2023-04-23T21:32:20;99928.66;;;16.08;63.96
48517;BME280;34310;51.904;4.256;2023-04-23T21:34:48;99929.56;;;16.08;63.87
48517;BME280;34310;51.904;4.256;2023-04-23T21:37:15;99944.34;;;16.09;63.92
48517;BME280;34310;51.904;4.256;2023-04-23T21:39:42;99941.84;;;16.13;63.93
48517;BME280;34310;51.904;4.256;2023-04-23T21:42:10;99951.38;;;16.12;63.74
48517;BME280;34310;51.904;4.256;2023-04-23T21:44:37;99941.84;;;16.13;63.83
48517;BME280;34310;51.904;4.256;2023-04-23T21:47:05;99949.69;;;16.14;63.74
48517;BME280;34310;51.904;4.256;2023-04-23T21:49:33;99952.34;;;16.16;63.75
48517;BME280;34310;51.904;4.256;2023-04-23T21:52:00;99956.69;;;16.15;63.57
48517;BME280;34310;51.904;4.256;2023-04-23T21:54:28;99956.72;;;16.17;63.54
48517;BME280;34310;51.904;4.256;2023-04-23T21:56:55;99960.22;;;16.17;63.57
48517;BME280;34310;51.904;4.256;2023-04-23T21:59:23;99963.72;;;16.18;63.52
48517;BME280;34310;51.904;4.256;2023-04-23T22:01:50;99960.28;;;16.19;63.62
48517;BME280;34310;51.904;4.256;2023-04-23T22:04:18;99975.97;;;16.20;63.44
48517;BME280;34310;51.904;4.256;2023-04-23T22:06:46;99972.50;;;16.20;63.53
48517;BME280;34310;51.904;4.256;2023-04-23T22:09:14;99974.25;;;16.21;63.52
48517;BME280;34310;51.904;4.256;2023-04-23T22:11:41;99983.84;;;16.22;63.29
48517;BME280;34310;51.904;4.256;2023-04-23T22:14:27;99982.97;;;16.21;63.25
48517;BME280;34310;51.904;4.256;2023-04-23T22:16:54;99989.06;;;16.22;63.24
48517;BME280;34310;51.904;4.256;2023-04-23T22:19:25;99985.63;;;16.23;63.38
48517;BME280;34310;51.904;4.256;2023-04-23T22:21:52;99989.06;;;16.22;63.13
48517;BME280;34310;51.904;4.256;2023-04-23T22:24:20;99991.72;;;16.23;63.06
48517;BME280;34310;51.904;4.256;2023-04-23T22:26:47;99995.16;;;16.22;63.13
48517;BME280;34310;51.904;4.256;2023-04-23T22:29:15;99993.44;;;16.23;63.06
48517;BME280;34310;51.904;4.256;2023-04-23T22:31:42;99993.47;;;16.24;63.06
48517;BME280;34310;51.904;4.256;2023-04-23T22:34:09;99997.81;;;16.24;63.03
48517;BME280;34310;51.904;4.256;2023-04-23T22:36:37;99997.81;;;16.24;63.02
48517;BME280;34310;51.904;4.256;2023-04-23T22:39:06;100009.09;;;16.24;63.05
48517;BME280;34310;51.904;4.256;2023-04-23T22:41:36;100004.78;;;16.25;62.93
48517;BME280;34310;51.904;4.256;2023-04-23T22:44:06;100010.00;;;16.25;63.02
48517;BME280;34310;51.904;4.256;2023-04-23T22:46:33;100013.44;;;16.24;62.96
48517;BME280;34310;51.904;4.256;2023-04-23T22:49:01;100014.31;;;16.24;62.82
48517;BME280;34310;51.904;4.256;2023-04-23T22:51:28;100022.13;;;16.24;62.85
48517;BME280;34310;51.904;4.256;2023-04-23T22:53:59;100017.81;;;16.25;62.75
48517;BME280;34310;51.904;4.256;2023-04-23T22:56:26;100021.25;;;16.24;62.66
48517;BME280;34310;51.904;4.256;2023-04-23T22:58:54;100023.84;;;16.24;62.80
48517;BME280;34310;51.904;4.256;2023-04-23T23:01:21;100020.34;;;16.23;62.62
48517;BME280;34310;51.904;4.256;2023-04-23T23:03:49;100026.44;;;16.24;62.67
48517;BME280;34310;51.904;4.256;2023-04-23T23:06:16;100023.84;;;16.24;62.68
48517;BME280;34310;51.904;4.256;2023-04-23T23:08:44;100020.41;;;16.25;62.67
48517;BME280;34310;51.904;4.256;2023-04-23T23:11:12;100021.25;;;16.24;62.55
48517;BME280;34310;51.904;4.256;2023-04-23T23:13:39;100018.63;;;16.24;62.55
48517;BME280;34310;51.904;4.256;2023-04-23T23:16:08;100022.13;;;16.24;62.58
48517;BME280;34310;51.904;4.256;2023-04-23T23:18:36;100020.34;;;16.23;62.53
48517;BME280;34310;51.904;4.256;2023-04-23T23:21:04;100021.25;;;16.24;62.46
48517;BME280;34310;51.904;4.256;2023-04-23T23:23:31;100029.06;;;16.24;62.50
48517;BME280;34310;51.904;4.256;2023-04-23T23:25:58;100027.34;;;16.24;62.46
48517;BME280;34310;51.904;4.256;2023-04-23T23:28:26;100018.63;;;16.24;62.50
48517;BME280;34310;51.904;4.256;2023-04-23T23:30:53;100023.78;;;16.22;62.59
48517;BME280;34310;51.904;4.256;2023-04-23T23:33:22;100023.78;;;16.22;62.43
48517;BME280;34310;51.904;4.256;2023-04-23T23:35:49;100027.28;;;16.23;62.58
48517;BME280;34310;51.904;4.256;2023-04-23T23:38:17;100027.25;;;16.21;62.49
48517;BME280;34310;51.904;4.256;2023-04-23T23:40:44;100033.34;;;16.22;62.53
48517;BME280;34310;51.904;4.256;2023-04-23T23:43:11;100028.94;;;16.21;62.34
48517;BME280;34310;51.904;4.256;2023-04-23T23:45:39;100032.44;;;16.21;62.44
48517;BME280;34310;51.904;4.256;2023-04-23T23:48:06;100028.06;;;16.20;62.42
48517;BME280;34310;51.904;4.256;2023-04-23T23:50:34;100027.25;;;16.21;62.37
48517;BME280;34310;51.904;4.256;2023-04-23T23:53:01;100031.56;;;16.21;62.36
48517;BME280;34310;51.904;4.256;2023-04-23T23:55:29;100032.44;;;16.21;62.47
48517;BME280;34310;51.904;4.256;2023-04-23T23:57:56;100035.88;;;16.20;62.30
